Accueil
METAR-TAF:

METAR-TAF

Aéroports :

Monte Malanotte

Prato Nevoso, Italie

latitude: 44-15N, longitude: 007-48E, altitude: 1741 m

Observation

Le bulletin a été fait il y a 7 heures et 33 minutes, à 17:55 UTC
Vent 12 kt de sud-ouest
Température 15°C
Humidité 88%
Pression 1016 hPa
Visibilité 10 km ou plus
Nuages épars à une hauteur de 2000 ft
Nuages épars à une hauteur de 3300 ft

METAR: LIMY 201755Z 22012KT 9999 SCT020 SCT033 15/13 Q1016 RMK BKN VAL NIL VIS MIN 9999

Heure: 03:28 (01:28 UTC)


TAF: absent

Observations et prévisions météorologiques de plus de 4000 aéroports (messages METAR et TAF).

Les stations disponibles sont représentées par des disques jaunes et rouges sur la carte.

Passer la souris dessus pour voir le nom de la station.

Cliquer dessus pour voir les observations et prévisions météorologiques.

Pour changer de carte: cliquez sur les boutons verts avec une croix noire pour zoomer, sur le bouton vert avec un tiret pour effectuer un zoom arrière, ou sur les flèches vertes pour les cartes adjacentes.


METAR-TAF: